sensor_id;sensor_type;location;lat;lon;timestamp;temperature;humidity
3466;DHT22;1747;48.884;9.160;2023-05-10T04:35:37;14.50;99.90
3466;DHT22;1747;48.884;9.160;2023-05-10T04:38:05;14.50;99.90
3466;DHT22;1747;48.884;9.160;2023-05-10T04:40:32;14.50;99.90
3466;DHT22;1747;48.884;9.160;2023-05-10T04:42:59;14.50;99.90
3466;DHT22;1747;48.884;9.160;2023-05-10T04:45:26;14.60;99.90
3466;DHT22;1747;48.884;9.160;2023-05-10T04:47:53;14.70;99.90
3466;DHT22;1747;48.884;9.160;2023-05-10T04:50:20;14.70;99.90
3466;DHT22;1747;48.884;9.160;2023-05-10T04:52:48;14.70;99.90
3466;DHT22;1747;48.884;9.160;2023-05-10T04:55:15;14.60;99.90
3466;DHT22;1747;48.884;9.160;2023-05-10T04:57:41;14.60;99.90
3466;DHT22;1747;48.884;9.160;2023-05-10T05:00:09;14.60;99.90
3466;DHT22;1747;48.884;9.160;2023-05-10T05:02:36;14.60;99.90
3466;DHT22;1747;48.884;9.160;2023-05-10T05:05:03;14.60;99.90
3466;DHT22;1747;48.884;9.160;2023-05-10T05:07:30;14.70;99.90
3466;DHT22;1747;48.884;9.160;2023-05-10T05:09:59;14.60;99.90
3466;DHT22;1747;48.884;9.160;2023-05-10T05:12:25;14.60;99.90
3466;DHT22;1747;48.884;9.160;2023-05-10T05:14:52;14.70;99.90
3466;DHT22;1747;48.884;9.160;2023-05-10T05:17:19;14.80;99.90
3466;DHT22;1747;48.884;9.160;2023-05-10T05:19:46;14.90;99.90
3466;DHT22;1747;48.884;9.160;2023-05-10T05:22:12;14.80;99.90
3466;DHT22;1747;48.884;9.160;2023-05-10T05:24:40;14.90;99.90
3466;DHT22;1747;48.884;9.160;2023-05-10T05:27:11;14.90;99.90
3466;DHT22;1747;48.884;9.160;2023-05-10T05:29:38;15.00;99.90
3466;DHT22;1747;48.884;9.160;2023-05-10T05:32:05;15.00;99.90
3466;DHT22;1747;48.884;9.160;2023-05-10T05:34:33;15.10;99.90
3466;DHT22;1747;48.884;9.160;2023-05-10T05:37:00;15.20;99.90
3466;DHT22;1747;48.884;9.160;2023-05-10T05:39:27;15.40;99.90
3466;DHT22;1747;48.884;9.160;2023-05-10T05:41:55;15.40;99.90
3466;DHT22;1747;48.884;9.160;2023-05-10T05:44:23;15.40;99.90
3466;DHT22;1747;48.884;9.160;2023-05-10T05:46:50;15.40;99.90
3466;DHT22;1747;48.884;9.160;2023-05-10T05:49:17;15.40;99.90
3466;DHT22;1747;48.884;9.160;2023-05-10T05:51:44;15.50;99.90
3466;DHT22;1747;48.884;9.160;2023-05-10T05:54:11;15.60;99.90
3466;DHT22;1747;48.884;9.160;2023-05-10T05:56:38;15.50;99.90
3466;DHT22;1747;48.884;9.160;2023-05-10T05:59:05;15.50;99.90
3466;DHT22;1747;48.884;9.160;2023-05-10T06:01:33;15.50;99.90
3466;DHT22;1747;48.884;9.160;2023-05-10T06:04:00;15.50;99.90
3466;DHT22;1747;48.884;9.160;2023-05-10T06:06:27;15.60;99.90
3466;DHT22;1747;48.884;9.160;2023-05-10T06:08:54;15.60;99.90
3466;DHT22;1747;48.884;9.160;2023-05-10T06:11:21;15.50;99.90
3466;DHT22;1747;48.884;9.160;2023-05-10T06:13:48;15.70;99.90
3466;DHT22;1747;48.884;9.160;2023-05-10T06:16:15;15.80;99.90
3466;DHT22;1747;48.884;9.160;2023-05-10T06:18:43;15.70;99.90
3466;DHT22;1747;48.884;9.160;2023-05-10T06:21:10;15.80;99.90
3466;DHT22;1747;48.884;9.160;2023-05-10T06:23:36;15.90;99.90
3466;DHT22;1747;48.884;9.160;2023-05-10T06:26:03;15.90;99.90
3466;DHT22;1747;48.884;9.160;2023-05-10T06:28:30;16.00;99.90
3466;DHT22;1747;48.884;9.160;2023-05-10T06:30:58;15.90;99.90
3466;DHT22;1747;48.884;9.160;2023-05-10T06:33:25;16.00;99.90
3466;DHT22;1747;48.884;9.160;2023-05-10T06:35:54;15.90;99.90
3466;DHT22;1747;48.884;9.160;2023-05-10T06:38:21;15.90;99.90
3466;DHT22;1747;48.884;9.160;2023-05-10T06:40:48;16.00;99.90
3466;DHT22;1747;48.884;9.160;2023-05-10T06:43:14;15.90;99.90
3466;DHT22;1747;48.884;9.160;2023-05-10T06:45:43;15.90;99.90
3466;DHT22;1747;48.884;9.160;2023-05-10T06:48:10;15.90;99.90
3466;DHT22;1747;48.884;9.160;2023-05-10T06:50:37;15.90;99.90
3466;DHT22;1747;48.884;9.160;2023-05-10T06:53:05;16.00;99.90
3466;DHT22;1747;48.884;9.160;2023-05-10T06:55:32;16.00;99.90
3466;DHT22;1747;48.884;9.160;2023-05-10T06:57:59;16.10;99.90
3466;DHT22;1747;48.884;9.160;2023-05-10T07:00:25;16.20;99.90
3466;DHT22;1747;48.884;9.160;2023-05-10T07:02:52;16.20;99.90
3466;DHT22;1747;48.884;9.160;2023-05-10T07:05:20;16.40;99.90
3466;DHT22;1747;48.884;9.160;2023-05-10T07:07:47;16.50;99.90
3466;DHT22;1747;48.884;9.160;2023-05-10T07:10:15;16.60;99.90
3466;DHT22;1747;48.884;9.160;2023-05-10T07:12:43;16.60;99.90
3466;DHT22;1747;48.884;9.160;2023-05-10T07:15:10;16.70;99.90
3466;DHT22;1747;48.884;9.160;2023-05-10T07:17:37;16.80;99.90
3466;DHT22;1747;48.884;9.160;2023-05-10T07:20:04;16.90;99.90
3466;DHT22;1747;48.884;9.160;2023-05-10T07:22:31;16.90;99.90
3466;DHT22;1747;48.884;9.160;2023-05-10T07:24:58;17.00;99.90
3466;DHT22;1747;48.884;9.160;2023-05-10T07:27:26;17.00;99.90
3466;DHT22;1747;48.884;9.160;2023-05-10T07:29:53;17.00;99.90
3466;DHT22;1747;48.884;9.160;2023-05-10T07:32:22;17.20;99.90
3466;DHT22;1747;48.884;9.160;2023-05-10T07:34:48;17.20;99.90
3466;DHT22;1747;48.884;9.160;2023-05-10T07:37:15;17.30;99.90
3466;DHT22;1747;48.884;9.160;2023-05-10T07:39:42;17.30;99.90
3466;DHT22;1747;48.884;9.160;2023-05-10T07:42:09;17.30;99.90
3466;DHT22;1747;48.884;9.160;2023-05-10T07:44:37;17.40;99.90
3466;DHT22;1747;48.884;9.160;2023-05-10T07:47:04;17.50;99.90
3466;DHT22;1747;48.884;9.160;2023-05-10T07:49:31;17.40;99.90
3466;DHT22;1747;48.884;9.160;2023-05-10T07:51:58;17.30;99.90
3466;DHT22;1747;48.884;9.160;2023-05-10T07:54:25;17.20;99.90
3466;DHT22;1747;48.884;9.160;2023-05-10T07:56:52;17.20;99.90
3466;DHT22;1747;48.884;9.160;2023-05-10T07:59:18;17.10;99.90
3466;DHT22;1747;48.884;9.160;2023-05-10T08:01:47;17.10;99.90
3466;DHT22;1747;48.884;9.160;2023-05-10T08:04:13;17.10;99.90
3466;DHT22;1747;48.884;9.160;2023-05-10T08:06:40;17.10;99.90
3466;DHT22;1747;48.884;9.160;2023-05-10T08:09:07;17.20;99.90
3466;DHT22;1747;48.884;9.160;2023-05-10T08:11:34;17.20;99.90
3466;DHT22;1747;48.884;9.160;2023-05-10T08:14:01;17.20;99.90
3466;DHT22;1747;48.884;9.160;2023-05-10T08:16:28;17.20;99.90
3466;DHT22;1747;48.884;9.160;2023-05-10T08:18:56;17.20;99.90
3466;DHT22;1747;48.884;9.160;2023-05-10T08:21:23;17.20;99.90
3466;DHT22;1747;48.884;9.160;2023-05-10T08:23:50;17.10;99.90
3466;DHT22;1747;48.884;9.160;2023-05-10T08:26:17;17.10;99.90
3466;DHT22;1747;48.884;9.160;2023-05-10T08:28:44;17.00;99.90
3466;DHT22;1747;48.884;9.160;2023-05-10T08:31:11;17.00;99.90
3466;DHT22;1747;48.884;9.160;2023-05-10T08:33:38;16.90;99.90
3466;DHT22;1747;48.884;9.160;2023-05-10T08:36:06;16.90;99.90
3466;DHT22;1747;48.884;9.160;2023-05-10T08:38:34;17.00;99.90
3466;DHT22;1747;48.884;9.160;2023-05-10T08:41:02;16.90;99.90
3466;DHT22;1747;48.884;9.160;2023-05-10T08:43:29;17.00;99.90
3466;DHT22;1747;48.884;9.160;2023-05-10T08:45:58;17.00;99.90
3466;DHT22;1747;48.884;9.160;2023-05-10T08:48:29;17.10;99.90
3466;DHT22;1747;48.884;9.160;2023-05-10T08:50:58;17.00;99.90
3466;DHT22;1747;48.884;9.160;2023-05-10T08:53:30;17.10;99.90
3466;DHT22;1747;48.884;9.160;2023-05-10T08:56:00;17.20;99.90
3466;DHT22;1747;48.884;9.160;2023-05-10T08:58:27;17.40;99.90
3466;DHT22;1747;48.884;9.160;2023-05-10T09:00:54;17.70;99.90
3466;DHT22;1747;48.884;9.160;2023-05-10T09:03:22;17.80;99.90
3466;DHT22;1747;48.884;9.160;2023-05-10T09:05:49;17.80;99.90
3466;DHT22;1747;48.884;9.160;2023-05-10T09:08:17;17.90;99.90
3466;DHT22;1747;48.884;9.160;2023-05-10T09:10:45;18.10;99.90
3466;DHT22;1747;48.884;9.160;2023-05-10T09:13:14;18.20;99.90
3466;DHT22;1747;48.884;9.160;2023-05-10T09:15:42;18.10;99.90
3466;DHT22;1747;48.884;9.160;2023-05-10T09:18:09;18.10;99.90
3466;DHT22;1747;48.884;9.160;2023-05-10T09:20:36;18.20;99.90
3466;DHT22;1747;48.884;9.160;2023-05-10T09:23:03;18.20;99.90
3466;DHT22;1747;48.884;9.160;2023-05-10T09:25:30;18.30;99.90
3466;DHT22;1747;48.884;9.160;2023-05-10T09:28:00;18.30;99.90
3466;DHT22;1747;48.884;9.160;2023-05-10T09:30:28;18.30;99.90
3466;DHT22;1747;48.884;9.160;2023-05-10T09:32:56;18.30;99.90
3466;DHT22;1747;48.884;9.160;2023-05-10T09:35:25;18.50;99.90
3466;DHT22;1747;48.884;9.160;2023-05-10T09:37:54;18.60;99.90
3466;DHT22;1747;48.884;9.160;2023-05-10T09:40:22;18.70;99.90
3466;DHT22;1747;48.884;9.160;2023-05-10T09:42:53;18.80;99.90
3466;DHT22;1747;48.884;9.160;2023-05-10T09:45:23;18.90;99.90
3466;DHT22;1747;48.884;9.160;2023-05-10T09:47:50;18.90;99.90
3466;DHT22;1747;48.884;9.160;2023-05-10T09:50:18;19.00;99.90
3466;DHT22;1747;48.884;9.160;2023-05-10T09:52:47;19.10;99.90
3466;DHT22;1747;48.884;9.160;2023-05-10T09:55:15;19.00;99.90
3466;DHT22;1747;48.884;9.160;2023-05-10T09:57:42;19.00;99.90
3466;DHT22;1747;48.884;9.160;2023-05-10T10:00:10;18.70;99.90
3466;DHT22;1747;48.884;9.160;2023-05-10T10:02:39;18.50;99.90
3466;DHT22;1747;48.884;9.160;2023-05-10T10:05:06;18.20;99.90
3466;DHT22;1747;48.884;9.160;2023-05-10T10:07:34;18.20;99.90
3466;DHT22;1747;48.884;9.160;2023-05-10T10:10:01;18.00;99.90
3466;DHT22;1747;48.884;9.160;2023-05-10T10:12:30;17.90;99.90
3466;DHT22;1747;48.884;9.160;2023-05-10T10:14:59;17.80;99.90
3466;DHT22;1747;48.884;9.160;2023-05-10T10:17:27;17.80;99.90
3466;DHT22;1747;48.884;9.160;2023-05-10T10:19:57;17.60;99.90
3466;DHT22;1747;48.884;9.160;2023-05-10T10:22:24;17.60;99.90
3466;DHT22;1747;48.884;9.160;2023-05-10T10:24:51;17.70;99.90
3466;DHT22;1747;48.884;9.160;2023-05-10T10:27:23;17.80;99.90
3466;DHT22;1747;48.884;9.160;2023-05-10T10:30:03;17.90;99.90
3466;DHT22;1747;48.884;9.160;2023-05-10T10:32:42;18.00;99.90
3466;DHT22;1747;48.884;9.160;2023-05-10T10:35:15;18.10;99.90
3466;DHT22;1747;48.884;9.160;2023-05-10T10:37:44;18.20;99.90
3466;DHT22;1747;48.884;9.160;2023-05-10T10:40:23;18.20;99.90
3466;DHT22;1747;48.884;9.160;2023-05-10T10:42:50;18.50;99.90
3466;DHT22;1747;48.884;9.160;2023-05-10T10:45:17;18.70;99.90
3466;DHT22;1747;48.884;9.160;2023-05-10T10:47:44;18.70;99.90
3466;DHT22;1747;48.884;9.160;2023-05-10T10:50:11;18.70;99.90
3466;DHT22;1747;48.884;9.160;2023-05-10T10:52:41;18.70;99.90
3466;DHT22;1747;48.884;9.160;2023-05-10T10:55:09;18.70;99.90
3466;DHT22;1747;48.884;9.160;2023-05-10T10:57:49;18.60;99.90
3466;DHT22;1747;48.884;9.160;2023-05-10T11:00:27;18.60;99.90
3466;DHT22;1747;48.884;9.160;2023-05-10T11:02:57;18.40;99.90
3466;DHT22;1747;48.884;9.160;2023-05-10T11:05:35;18.40;99.90
3466;DHT22;1747;48.884;9.160;2023-05-10T11:08:10;18.60;99.90
3466;DHT22;1747;48.884;9.160;2023-05-10T11:10:38;18.70;99.90
3466;DHT22;1747;48.884;9.160;2023-05-10T11:13:06;18.70;99.90
3466;DHT22;1747;48.884;9.160;2023-05-10T11:15:34;18.80;99.90
3466;DHT22;1747;48.884;9.160;2023-05-10T11:18:16;18.90;99.90
3466;DHT22;1747;48.884;9.160;2023-05-10T11:20:44;19.10;99.90
3466;DHT22;1747;48.884;9.160;2023-05-10T11:23:17;19.30;99.90
3466;DHT22;1747;48.884;9.160;2023-05-10T11:25:45;19.60;99.90
3466;DHT22;1747;48.884;9.160;2023-05-10T11:28:13;19.80;99.90
3466;DHT22;1747;48.884;9.160;2023-05-10T11:30:41;20.00;99.90
3466;DHT22;1747;48.884;9.160;2023-05-10T11:33:11;20.10;99.90
3466;DHT22;1747;48.884;9.160;2023-05-10T11:35:41;20.30;99.90
3466;DHT22;1747;48.884;9.160;2023-05-10T11:38:08;20.30;99.90
3466;DHT22;1747;48.884;9.160;2023-05-10T11:40:38;20.20;99.90
3466;DHT22;1747;48.884;9.160;2023-05-10T11:43:05;19.90;99.90
3466;DHT22;1747;48.884;9.160;2023-05-10T11:45:32;19.60;99.90
3466;DHT22;1747;48.884;9.160;2023-05-10T11:48:00;19.50;99.90
3466;DHT22;1747;48.884;9.160;2023-05-10T11:50:27;19.20;99.90
3466;DHT22;1747;48.884;9.160;2023-05-10T11:52:55;19.10;99.90
3466;DHT22;1747;48.884;9.160;2023-05-10T11:55:22;19.00;99.90
3466;DHT22;1747;48.884;9.160;2023-05-10T11:57:53;19.10;99.90
3466;DHT22;1747;48.884;9.160;2023-05-10T12:00:21;19.20;99.90
3466;DHT22;1747;48.884;9.160;2023-05-10T12:02:48;19.20;99.90
3466;DHT22;1747;48.884;9.160;2023-05-10T12:05:15;19.20;99.90
3466;DHT22;1747;48.884;9.160;2023-05-10T12:07:42;19.10;99.90
3466;DHT22;1747;48.884;9.160;2023-05-10T12:10:11;18.80;99.90
3466;DHT22;1747;48.884;9.160;2023-05-10T12:12:41;18.80;99.90
3466;DHT22;1747;48.884;9.160;2023-05-10T12:15:18;18.90;99.90
3466;DHT22;1747;48.884;9.160;2023-05-10T12:17:45;18.80;99.90
3466;DHT22;1747;48.884;9.160;2023-05-10T12:20:16;18.80;99.90
3466;DHT22;1747;48.884;9.160;2023-05-10T12:22:45;18.90;99.90
3466;DHT22;1747;48.884;9.160;2023-05-10T12:25:12;18.80;99.90
3466;DHT22;1747;48.884;9.160;2023-05-10T12:27:39;18.60;99.90
3466;DHT22;1747;48.884;9.160;2023-05-10T12:30:07;18.50;99.90
3466;DHT22;1747;48.884;9.160;2023-05-10T12:32:41;18.50;99.90
3466;DHT22;1747;48.884;9.160;2023-05-10T12:35:08;18.40;99.90
3466;DHT22;1747;48.884;9.160;2023-05-10T12:37:35;18.40;99.90
3466;DHT22;1747;48.884;9.160;2023-05-10T12:40:06;18.50;99.90
3466;DHT22;1747;48.884;9.160;2023-05-10T12:42:34;18.60;99.90
3466;DHT22;1747;48.884;9.160;2023-05-10T12:45:02;18.80;99.90
3466;DHT22;1747;48.884;9.160;2023-05-10T12:47:29;19.00;99.90
3466;DHT22;1747;48.884;9.160;2023-05-10T12:49:57;19.30;99.90
3466;DHT22;1747;48.884;9.160;2023-05-10T12:52:24;19.40;99.90
3466;DHT22;1747;48.884;9.160;2023-05-10T12:54:51;19.40;99.90
3466;DHT22;1747;48.884;9.160;2023-05-10T12:57:18;19.30;99.90
3466;DHT22;1747;48.884;9.160;2023-05-10T12:59:45;19.20;99.90
3466;DHT22;1747;48.884;9.160;2023-05-10T13:02:12;19.20;99.90
3466;DHT22;1747;48.884;9.160;2023-05-10T13:04:40;19.10;99.90
3466;DHT22;1747;48.884;9.160;2023-05-10T13:07:08;19.40;99.90
3466;DHT22;1747;48.884;9.160;2023-05-10T13:09:35;19.70;99.90
3466;DHT22;1747;48.884;9.160;2023-05-10T13:12:02;19.80;99.90
3466;DHT22;1747;48.884;9.160;2023-05-10T13:14:29;20.10;99.90
3466;DHT22;1747;48.884;9.160;2023-05-10T13:16:56;20.20;99.90
3466;DHT22;1747;48.884;9.160;2023-05-10T13:19:23;20.10;99.80
3466;DHT22;1747;48.884;9.160;2023-05-10T13:21:50;20.10;99.90
3466;DHT22;1747;48.884;9.160;2023-05-10T13:24:18;20.00;99.90
3466;DHT22;1747;48.884;9.160;2023-05-10T13:26:46;20.20;99.90
3466;DHT22;1747;48.884;9.160;2023-05-10T13:29:12;20.00;99.20
3466;DHT22;1747;48.884;9.160;2023-05-10T13:31:39;20.10;99.90
3466;DHT22;1747;48.884;9.160;2023-05-10T13:34:06;20.00;99.60
3466;DHT22;1747;48.884;9.160;2023-05-10T13:36:33;20.00;99.90
3466;DHT22;1747;48.884;9.160;2023-05-10T13:39:00;20.00;99.90
3466;DHT22;1747;48.884;9.160;2023-05-10T13:41:30;19.90;99.90
3466;DHT22;1747;48.884;9.160;2023-05-10T13:43:57;19.90;99.90
3466;DHT22;1747;48.884;9.160;2023-05-10T13:46:24;19.90;99.90
3466;DHT22;1747;48.884;9.160;2023-05-10T13:48:50;19.90;99.90
3466;DHT22;1747;48.884;9.160;2023-05-10T13:51:17;19.90;99.90
3466;DHT22;1747;48.884;9.160;2023-05-10T13:53:44;19.70;99.90
3466;DHT22;1747;48.884;9.160;2023-05-10T13:56:12;19.80;99.90
3466;DHT22;1747;48.884;9.160;2023-05-10T13:58:41;19.80;99.90
3466;DHT22;1747;48.884;9.160;2023-05-10T14:01:07;19.90;99.90
3466;DHT22;1747;48.884;9.160;2023-05-10T14:03:35;20.00;99.90
3466;DHT22;1747;48.884;9.160;2023-05-10T14:06:01;19.90;99.90
3466;DHT22;1747;48.884;9.160;2023-05-10T14:08:28;19.80;99.90
3466;DHT22;1747;48.884;9.160;2023-05-10T14:10:55;19.80;99.90
3466;DHT22;1747;48.884;9.160;2023-05-10T14:13:23;19.70;99.90
3466;DHT22;1747;48.884;9.160;2023-05-10T14:15:52;19.70;99.90
3466;DHT22;1747;48.884;9.160;2023-05-10T14:18:20;19.80;99.90
3466;DHT22;1747;48.884;9.160;2023-05-10T14:20:47;19.80;99.20
3466;DHT22;1747;48.884;9.160;2023-05-10T14:23:13;19.70;99.30
3466;DHT22;1747;48.884;9.160;2023-05-10T14:25:40;19.60;99.90
3466;DHT22;1747;48.884;9.160;2023-05-10T14:28:07;19.50;99.80
3466;DHT22;1747;48.884;9.160;2023-05-10T14:30:34;19.50;99.30
3466;DHT22;1747;48.884;9.160;2023-05-10T14:33:03;19.50;99.20
3466;DHT22;1747;48.884;9.160;2023-05-10T14:35:30;19.60;99.80
3466;DHT22;1747;48.884;9.160;2023-05-10T14:38:05;19.80;99.50
3466;DHT22;1747;48.884;9.160;2023-05-10T14:40:32;19.90;99.50
3466;DHT22;1747;48.884;9.160;2023-05-10T14:43:00;19.80;98.30
3466;DHT22;1747;48.884;9.160;2023-05-10T14:45:26;19.80;98.70
3466;DHT22;1747;48.884;9.160;2023-05-10T14:47:53;20.00;98.50
3466;DHT22;1747;48.884;9.160;2023-05-10T14:50:21;20.00;98.70
3466;DHT22;1747;48.884;9.160;2023-05-10T14:52:48;19.90;98.50
3466;DHT22;1747;48.884;9.160;2023-05-10T14:55:15;20.00;98.70
3466;DHT22;1747;48.884;9.160;2023-05-10T14:57:42;19.90;98.80
3466;DHT22;1747;48.884;9.160;2023-05-10T15:00:12;19.90;99.00
3466;DHT22;1747;48.884;9.160;2023-05-10T15:02:41;20.10;98.80
3466;DHT22;1747;48.884;9.160;2023-05-10T15:05:08;20.20;98.50
3466;DHT22;1747;48.884;9.160;2023-05-10T15:07:36;20.20;98.60
3466;DHT22;1747;48.884;9.160;2023-05-10T15:10:04;20.10;98.20
3466;DHT22;1747;48.884;9.160;2023-05-10T15:12:31;20.10;98.80
3466;DHT22;1747;48.884;9.160;2023-05-10T15:14:57;20.20;98.70
3466;DHT22;1747;48.884;9.160;2023-05-10T15:17:24;20.40;99.00
3466;DHT22;1747;48.884;9.160;2023-05-10T15:19:51;20.40;98.80
3466;DHT22;1747;48.884;9.160;2023-05-10T15:22:18;20.50;99.10
3466;DHT22;1747;48.884;9.160;2023-05-10T15:24:46;20.30;98.40
3466;DHT22;1747;48.884;9.160;2023-05-10T15:27:13;20.30;97.40
3466;DHT22;1747;48.884;9.160;2023-05-10T15:29:40;20.30;97.70
3466;DHT22;1747;48.884;9.160;2023-05-10T15:32:07;20.20;97.90
3466;DHT22;1747;48.884;9.160;2023-05-10T15:34:33;20.20;97.50
3466;DHT22;1747;48.884;9.160;2023-05-10T15:37:01;20.10;97.30
3466;DHT22;1747;48.884;9.160;2023-05-10T15:39:28;20.10;97.60
3466;DHT22;1747;48.884;9.160;2023-05-10T15:41:56;20.00;97.60
3466;DHT22;1747;48.884;9.160;2023-05-10T15:44:23;20.10;97.70
3466;DHT22;1747;48.884;9.160;2023-05-10T15:46:50;20.10;96.90
3466;DHT22;1747;48.884;9.160;2023-05-10T15:49:17;19.80;97.30
3466;DHT22;1747;48.884;9.160;2023-05-10T15:51:44;19.80;97.20
3466;DHT22;1747;48.884;9.160;2023-05-10T15:54:10;19.80;97.30
3466;DHT22;1747;48.884;9.160;2023-05-10T15:56:37;19.60;97.60
3466;DHT22;1747;48.884;9.160;2023-05-10T15:59:05;19.60;97.60
3466;DHT22;1747;48.884;9.160;2023-05-10T16:01:33;19.60;97.30
3466;DHT22;1747;48.884;9.160;2023-05-10T16:04:00;19.70;97.30
3466;DHT22;1747;48.884;9.160;2023-05-10T16:06:27;19.70;97.00
3466;DHT22;1747;48.884;9.160;2023-05-10T16:08:53;19.70;97.10
3466;DHT22;1747;48.884;9.160;2023-05-10T16:11:30;19.60;96.80
3466;DHT22;1747;48.884;9.160;2023-05-10T16:13:57;19.60;97.60
3466;DHT22;1747;48.884;9.160;2023-05-10T16:16:25;19.70;97.40
3466;DHT22;1747;48.884;9.160;2023-05-10T16:18:52;19.70;97.60
3466;DHT22;1747;48.884;9.160;2023-05-10T16:21:19;19.70;97.40
3466;DHT22;1747;48.884;9.160;2023-05-10T16:23:46;19.70;97.20
3466;DHT22;1747;48.884;9.160;2023-05-10T16:26:13;19.60;97.30
3466;DHT22;1747;48.884;9.160;2023-05-10T16:28:40;19.50;97.50
3466;DHT22;1747;48.884;9.160;2023-05-10T16:31:07;19.40;98.00
3466;DHT22;1747;48.884;9.160;2023-05-10T16:33:38;19.30;97.80
3466;DHT22;1747;48.884;9.160;2023-05-10T16:36:05;19.20;98.00
3466;DHT22;1747;48.884;9.160;2023-05-10T16:38:32;19.20;98.00
3466;DHT22;1747;48.884;9.160;2023-05-10T16:41:01;19.20;98.20
3466;DHT22;1747;48.884;9.160;2023-05-10T16:43:28;19.10;98.20
3466;DHT22;1747;48.884;9.160;2023-05-10T16:45:54;19.10;98.10
3466;DHT22;1747;48.884;9.160;2023-05-10T16:48:21;18.90;98.20
3466;DHT22;1747;48.884;9.160;2023-05-10T16:50:49;18.80;98.70
3466;DHT22;1747;48.884;9.160;2023-05-10T16:53:17;18.80;99.60
3466;DHT22;1747;48.884;9.160;2023-05-10T16:55:44;18.80;99.30
3466;DHT22;1747;48.884;9.160;2023-05-10T16:58:11;18.70;99.50
3466;DHT22;1747;48.884;9.160;2023-05-10T17:00:38;18.60;99.70
3466;DHT22;1747;48.884;9.160;2023-05-10T17:03:05;18.70;99.10
3466;DHT22;1747;48.884;9.160;2023-05-10T17:05:32;18.60;99.00
3466;DHT22;1747;48.884;9.160;2023-05-10T17:08:00;18.50;99.40
3466;DHT22;1747;48.884;9.160;2023-05-10T17:10:26;18.50;99.80
3466;DHT22;1747;48.884;9.160;2023-05-10T17:12:53;18.50;99.90
3466;DHT22;1747;48.884;9.160;2023-05-10T17:15:20;18.60;99.90
3466;DHT22;1747;48.884;9.160;2023-05-10T17:17:47;18.60;99.90
3466;DHT22;1747;48.884;9.160;2023-05-10T17:20:14;18.60;99.80
3466;DHT22;1747;48.884;9.160;2023-05-10T17:22:41;18.50;99.90
3466;DHT22;1747;48.884;9.160;2023-05-10T17:25:09;18.60;99.90
3466;DHT22;1747;48.884;9.160;2023-05-10T17:27:36;18.50;99.90
3466;DHT22;1747;48.884;9.160;2023-05-10T17:30:03;18.40;99.90
3466;DHT22;1747;48.884;9.160;2023-05-10T17:32:30;18.30;99.90
3466;DHT22;1747;48.884;9.160;2023-05-10T17:34:58;18.30;99.90
3466;DHT22;1747;48.884;9.160;2023-05-10T17:37:25;18.30;99.90
3466;DHT22;1747;48.884;9.160;2023-05-10T17:39:52;18.20;99.90
3466;DHT22;1747;48.884;9.160;2023-05-10T17:42:20;18.20;99.90
3466;DHT22;1747;48.884;9.160;2023-05-10T17:44:46;18.10;99.90
3466;DHT22;1747;48.884;9.160;2023-05-10T17:47:13;18.10;99.90
3466;DHT22;1747;48.884;9.160;2023-05-10T17:49:40;18.10;99.90
3466;DHT22;1747;48.884;9.160;2023-05-10T17:52:07;18.00;99.90
3466;DHT22;1747;48.884;9.160;2023-05-10T17:54:34;17.80;99.90
3466;DHT22;1747;48.884;9.160;2023-05-10T17:57:00;17.80;99.90
3466;DHT22;1747;48.884;9.160;2023-05-10T17:59:29;17.80;99.90
3466;DHT22;1747;48.884;9.160;2023-05-10T18:01:56;17.80;99.90
3466;DHT22;1747;48.884;9.160;2023-05-10T18:04:23;17.70;99.90
3466;DHT22;1747;48.884;9.160;2023-05-10T18:06:50;17.70;99.90
3466;DHT22;1747;48.884;9.160;2023-05-10T18:09:19;17.70;99.90
3466;DHT22;1747;48.884;9.160;2023-05-10T18:11:46;17.60;99.90
3466;DHT22;1747;48.884;9.160;2023-05-10T18:14:13;17.50;99.90
3466;DHT22;1747;48.884;9.160;2023-05-10T18:16:41;17.50;99.90
3466;DHT22;1747;48.884;9.160;2023-05-10T18:19:09;17.40;99.90
3466;DHT22;1747;48.884;9.160;2023-05-10T18:21:36;17.30;99.90
3466;DHT22;1747;48.884;9.160;2023-05-10T18:24:04;17.30;99.90
3466;DHT22;1747;48.884;9.160;2023-05-10T18:26:31;17.20;99.90
3466;DHT22;1747;48.884;9.160;2023-05-10T18:28:58;17.10;99.90
3466;DHT22;1747;48.884;9.160;2023-05-10T18:31:25;17.10;99.90
3466;DHT22;1747;48.884;9.160;2023-05-10T18:33:53;17.00;99.90
3466;DHT22;1747;48.884;9.160;2023-05-10T18:36:21;17.00;99.90
3466;DHT22;1747;48.884;9.160;2023-05-10T18:38:48;16.90;99.90
3466;DHT22;1747;48.884;9.160;2023-05-10T18:41:15;16.90;99.90
3466;DHT22;1747;48.884;9.160;2023-05-10T18:43:41;16.80;99.90
3466;DHT22;1747;48.884;9.160;2023-05-10T18:46:08;16.70;99.90
3466;DHT22;1747;48.884;9.160;2023-05-10T18:48:35;16.60;99.90
3466;DHT22;1747;48.884;9.160;2023-05-10T18:51:04;16.50;99.90
3466;DHT22;1747;48.884;9.160;2023-05-10T18:53:31;16.40;99.90
3466;DHT22;1747;48.884;9.160;2023-05-10T18:55:58;16.40;99.90
3466;DHT22;1747;48.884;9.160;2023-05-10T18:58:27;16.40;99.90
3466;DHT22;1747;48.884;9.160;2023-05-10T19:00:54;16.30;99.90
3466;DHT22;1747;48.884;9.160;2023-05-10T19:03:21;16.40;99.90
3466;DHT22;1747;48.884;9.160;2023-05-10T19:05:47;16.40;99.90
3466;DHT22;1747;48.884;9.160;2023-05-10T19:08:16;16.40;99.90
3466;DHT22;1747;48.884;9.160;2023-05-10T19:10:43;16.30;99.90
3466;DHT22;1747;48.884;9.160;2023-05-10T19:13:10;16.30;99.90
3466;DHT22;1747;48.884;9.160;2023-05-10T19:15:37;16.20;99.90
3466;DHT22;1747;48.884;9.160;2023-05-10T19:18:04;16.10;99.90
3466;DHT22;1747;48.884;9.160;2023-05-10T19:20:31;16.00;99.90
3466;DHT22;1747;48.884;9.160;2023-05-10T19:22:58;15.90;99.90
3466;DHT22;1747;48.884;9.160;2023-05-10T19:25:26;15.80;99.90
3466;DHT22;1747;48.884;9.160;2023-05-10T19:27:54;15.70;99.90
3466;DHT22;1747;48.884;9.160;2023-05-10T19:30:22;15.60;99.90
3466;DHT22;1747;48.884;9.160;2023-05-10T19:32:49;15.60;99.90
3466;DHT22;1747;48.884;9.160;2023-05-10T19:35:16;15.50;99.90
3466;DHT22;1747;48.884;9.160;2023-05-10T19:37:42;15.50;99.90
3466;DHT22;1747;48.884;9.160;2023-05-10T19:40:11;15.50;99.90
3466;DHT22;1747;48.884;9.160;2023-05-10T19:42:41;15.40;99.90
3466;DHT22;1747;48.884;9.160;2023-05-10T19:45:09;15.40;99.90
3466;DHT22;1747;48.884;9.160;2023-05-10T19:47:36;15.40;99.90
3466;DHT22;1747;48.884;9.160;2023-05-10T19:50:04;15.40;99.90
3466;DHT22;1747;48.884;9.160;2023-05-10T19:52:31;15.40;99.90
3466;DHT22;1747;48.884;9.160;2023-05-10T19:54:58;15.40;99.90
3466;DHT22;1747;48.884;9.160;2023-05-10T19:57:25;15.40;99.90
3466;DHT22;1747;48.884;9.160;2023-05-10T19:59:53;15.30;99.90
3466;DHT22;1747;48.884;9.160;2023-05-10T20:02:20;15.20;99.90
3466;DHT22;1747;48.884;9.160;2023-05-10T20:04:47;15.20;99.90
3466;DHT22;1747;48.884;9.160;2023-05-10T20:07:14;15.20;99.90
3466;DHT22;1747;48.884;9.160;2023-05-10T20:09:41;15.10;99.90
3466;DHT22;1747;48.884;9.160;2023-05-10T20:12:08;15.10;99.90
3466;DHT22;1747;48.884;9.160;2023-05-10T20:14:35;15.10;99.90
3466;DHT22;1747;48.884;9.160;2023-05-10T20:17:04;15.00;99.90
3466;DHT22;1747;48.884;9.160;2023-05-10T20:19:31;15.00;99.90
3466;DHT22;1747;48.884;9.160;2023-05-10T20:21:58;15.00;99.90
3466;DHT22;1747;48.884;9.160;2023-05-10T20:24:24;15.00;99.90
3466;DHT22;1747;48.884;9.160;2023-05-10T20:26:52;14.90;99.90
3466;DHT22;1747;48.884;9.160;2023-05-10T20:29:19;14.90;99.90
3466;DHT22;1747;48.884;9.160;2023-05-10T20:31:46;14.90;99.90
3466;DHT22;1747;48.884;9.160;2023-05-10T20:34:14;14.90;99.90
3466;DHT22;1747;48.884;9.160;2023-05-10T20:36:41;14.90;99.90
3466;DHT22;1747;48.884;9.160;2023-05-10T20:39:08;14.90;99.90